createdAt,value
2023-01-21T00:01:40.630Z,14.70
2023-01-21T00:04:05.472Z,14.38
2023-01-21T00:06:30.413Z,15.27
2023-01-21T00:08:54.831Z,15.52
2023-01-21T00:11:19.505Z,15.65
2023-01-21T00:13:44.610Z,15.85
2023-01-21T00:16:10.174Z,15.88
2023-01-21T00:18:36.933Z,15.80
2023-01-21T00:21:01.673Z,15.38
2023-01-21T00:23:26.523Z,15.63
2023-01-21T00:25:51.184Z,16.10
2023-01-21T00:28:15.838Z,15.98
2023-01-21T00:30:41.852Z,15.40
2023-01-21T00:33:06.902Z,16.45
2023-01-21T00:35:33.318Z,16.77
2023-01-21T00:37:58.137Z,16.23
2023-01-21T00:40:23.085Z,16.40
2023-01-21T00:42:47.687Z,17.73
2023-01-21T00:45:12.595Z,16.80
2023-01-21T00:47:37.249Z,17.08
2023-01-21T00:50:01.937Z,16.90
2023-01-21T00:52:29.414Z,15.73
2023-01-21T00:54:54.939Z,17.58
2023-01-21T00:57:19.440Z,18.13
2023-01-21T00:59:44.145Z,17.95
2023-01-21T01:02:08.929Z,18.67
2023-01-21T01:04:33.815Z,18.10
2023-01-21T01:07:00.954Z,18.23
2023-01-21T01:09:26.964Z,19.35
2023-01-21T01:11:51.673Z,17.95
2023-01-21T01:14:16.357Z,17.95
2023-01-21T01:16:40.933Z,17.60
2023-01-21T01:19:05.668Z,18.40
2023-01-21T01:21:30.475Z,19.10
2023-01-21T01:23:56.062Z,18.17
2023-01-21T01:26:23.407Z,18.10
2023-01-21T01:28:48.741Z,17.27
2023-01-21T01:31:15.435Z,18.02
2023-01-21T01:33:40.396Z,18.38
2023-01-21T01:36:07.464Z,17.38
2023-01-21T01:38:32.697Z,18.15
2023-01-21T01:40:57.663Z,17.15
2023-01-21T01:43:25.337Z,18.83
2023-01-21T01:45:50.678Z,19.05
2023-01-21T01:48:17.905Z,18.60
2023-01-21T01:50:43.412Z,18.60
2023-01-21T01:53:08.990Z,17.85
2023-01-21T01:55:36.806Z,19.05
2023-01-21T01:58:03.554Z,17.38
2023-01-21T02:00:29.859Z,17.05
2023-01-21T02:03:13.143Z,17.98
2023-01-21T02:05:39.594Z,17.65
2023-01-21T02:08:04.701Z,18.63
2023-01-21T02:10:30.217Z,18.73
2023-01-21T02:12:55.328Z,17.38
2023-01-21T02:15:21.000Z,18.10
2023-01-21T02:17:58.731Z,18.90
2023-01-21T02:20:45.307Z,17.83
2023-01-21T02:23:17.642Z,18.48
2023-01-21T02:26:14.308Z,17.65
2023-01-21T02:29:11.842Z,17.63
2023-01-21T02:32:03.560Z,18.75
2023-01-21T02:34:36.799Z,18.42
2023-01-21T02:37:12.579Z,19.38
2023-01-21T02:39:57.524Z,18.33
2023-01-21T02:42:28.152Z,18.55
2023-01-21T02:45:01.907Z,18.40
2023-01-21T02:47:32.637Z,18.15
2023-01-21T02:50:03.185Z,17.92
2023-01-21T02:52:28.554Z,18.33
2023-01-21T02:54:55.513Z,18.77
2023-01-21T02:57:28.246Z,17.25
2023-01-21T02:59:56.919Z,18.40
2023-01-21T03:02:38.583Z,18.20
2023-01-21T03:05:16.884Z,18.63
2023-01-21T03:07:48.219Z,18.30
2023-01-21T03:10:21.821Z,18.38
2023-01-21T03:12:54.158Z,19.67
2023-01-21T03:15:42.602Z,18.10
2023-01-21T03:18:14.481Z,18.75
2023-01-21T03:20:44.241Z,17.35
2023-01-21T03:23:14.575Z,20.00
2023-01-21T03:25:41.550Z,18.35
2023-01-21T03:28:10.635Z,18.50
2023-01-21T03:30:37.488Z,17.35
2023-01-21T03:33:03.443Z,17.98
2023-01-21T03:35:33.389Z,19.80
2023-01-21T03:40:29.732Z,20.23
2023-01-21T03:42:56.484Z,17.05
2023-01-21T03:45:29.840Z,18.63
2023-01-21T03:48:01.051Z,18.45
2023-01-21T03:50:29.427Z,18.00
2023-01-21T03:52:54.657Z,18.48
2023-01-21T03:55:21.537Z,17.75
2023-01-21T03:57:46.382Z,17.02
2023-01-21T04:00:12.623Z,18.17
2023-01-21T04:02:37.150Z,17.80
2023-01-21T04:05:01.617Z,18.42
2023-01-21T04:07:28.002Z,18.88
2023-01-21T04:09:52.589Z,17.33
2023-01-21T04:12:18.926Z,17.65
2023-01-21T04:14:43.552Z,17.92
2023-01-21T04:17:08.546Z,18.60
2023-01-21T04:19:33.218Z,17.85
2023-01-21T04:21:57.947Z,17.58
2023-01-21T04:24:22.378Z,17.17
2023-01-21T04:26:47.148Z,17.88
2023-01-21T04:29:13.125Z,16.85
2023-01-21T04:31:37.640Z,17.23
2023-01-21T04:34:02.179Z,16.20
2023-01-21T04:36:26.847Z,17.10
2023-01-21T04:38:51.519Z,17.58
2023-01-21T04:41:16.108Z,18.30
2023-01-21T04:43:40.747Z,16.13
2023-01-21T04:46:06.990Z,18.48
2023-01-21T04:48:31.786Z,18.55
2023-01-21T04:50:56.474Z,18.33
2023-01-21T04:53:20.937Z,17.77
2023-01-21T04:55:45.888Z,17.98
2023-01-21T04:58:10.604Z,17.75
2023-01-21T05:00:35.254Z,17.25
2023-01-21T05:03:01.410Z,17.63
2023-01-21T05:05:26.108Z,16.35
2023-01-21T05:07:54.216Z,17.30
2023-01-21T05:10:19.454Z,18.27
2023-01-21T05:12:44.111Z,16.58
2023-01-21T05:15:09.860Z,17.17
2023-01-21T05:17:34.321Z,17.85
2023-01-21T05:20:00.635Z,15.38
2023-01-21T05:22:25.183Z,16.58
2023-01-21T05:24:49.703Z,16.17
2023-01-21T05:27:16.000Z,16.80
2023-01-21T05:29:41.311Z,16.00
2023-01-21T05:32:06.284Z,17.23
2023-01-21T05:34:31.026Z,17.13
2023-01-21T05:36:56.975Z,17.17
2023-01-21T05:39:21.641Z,18.15
2023-01-21T05:41:46.081Z,16.35
2023-01-21T05:44:11.367Z,17.60
2023-01-21T05:46:36.054Z,17.95
2023-01-21T05:49:00.571Z,16.88
2023-01-21T05:51:25.062Z,17.98
2023-01-21T05:53:53.523Z,16.58
2023-01-21T05:56:18.450Z,15.93
2023-01-21T05:58:43.628Z,17.20
2023-01-21T06:01:08.100Z,15.77
2023-01-21T06:03:32.763Z,18.55
2023-01-21T06:05:57.359Z,18.50
2023-01-21T06:08:22.050Z,16.67
2023-01-21T06:10:48.223Z,15.32
2023-01-21T06:13:13.675Z,14.65
2023-01-21T06:15:38.134Z,16.02
2023-01-21T06:18:03.127Z,15.70
2023-01-21T06:20:29.640Z,14.82
2023-01-21T06:22:54.679Z,14.68
2023-01-21T06:25:19.408Z,16.25
2023-01-21T06:27:45.404Z,21.00
2023-01-21T06:30:11.489Z,17.38
2023-01-21T06:32:36.475Z,15.52
2023-01-21T06:35:01.021Z,15.20
2023-01-21T06:37:27.447Z,16.42
2023-01-21T06:39:51.924Z,15.57
2023-01-21T06:42:18.017Z,15.95
2023-01-21T06:44:44.245Z,15.10
2023-01-21T06:47:09.636Z,15.80
2023-01-21T06:49:34.245Z,14.63
2023-01-21T06:51:58.844Z,15.00
2023-01-21T06:54:23.518Z,15.57
2023-01-21T06:56:48.119Z,14.80
2023-01-21T06:59:12.515Z,16.67
2023-01-21T07:01:38.634Z,15.57
2023-01-21T07:04:03.693Z,15.25
2023-01-21T07:06:28.286Z,14.85
2023-01-21T07:08:52.818Z,14.88
2023-01-21T07:11:17.497Z,15.55
2023-01-21T07:13:42.037Z,14.65
2023-01-21T07:16:07.611Z,14.00
2023-01-21T07:18:33.536Z,15.82
2023-01-21T07:20:58.386Z,14.55
2023-01-21T07:23:22.825Z,16.92
2023-01-21T07:25:47.870Z,16.73
2023-01-21T07:28:12.297Z,15.57
2023-01-21T07:30:36.768Z,17.92
2023-01-21T07:33:06.859Z,15.18
2023-01-21T07:35:32.825Z,15.73
2023-01-21T07:37:57.166Z,14.75
2023-01-21T07:40:21.871Z,16.52
2023-01-21T07:42:51.510Z,16.42
2023-01-21T07:45:17.264Z,15.15
2023-01-21T07:47:41.763Z,14.38
2023-01-21T07:50:08.957Z,16.25
2023-01-21T07:52:35.328Z,15.50
2023-01-21T07:55:00.194Z,15.32
2023-01-21T07:57:24.787Z,16.10
2023-01-21T07:59:50.393Z,16.38
2023-01-21T08:02:15.162Z,17.83
2023-01-21T08:04:40.536Z,14.65
2023-01-21T08:07:12.011Z,17.20
2023-01-21T08:09:40.655Z,17.27
2023-01-21T08:12:06.288Z,19.05
2023-01-21T08:14:30.970Z,18.30
2023-01-21T08:16:55.957Z,17.30
2023-01-21T08:19:20.952Z,18.20
2023-01-21T08:21:45.385Z,17.75
2023-01-21T08:24:11.073Z,17.80
2023-01-21T08:26:36.909Z,18.17
2023-01-21T08:29:01.323Z,17.20
2023-01-21T08:31:27.179Z,17.88
2023-01-21T08:33:51.837Z,18.05
2023-01-21T08:36:17.021Z,19.25
2023-01-21T08:38:41.478Z,18.15
2023-01-21T08:41:06.432Z,18.77
2023-01-21T08:43:32.421Z,18.60
2023-01-21T08:45:58.726Z,18.55
2023-01-21T08:48:23.214Z,20.40
2023-01-21T08:50:47.807Z,18.52
2023-01-21T08:53:12.933Z,20.15
2023-01-21T08:55:37.360Z,19.27
2023-01-21T08:58:01.817Z,19.35
2023-01-21T09:00:28.019Z,18.77
2023-01-21T09:02:52.907Z,17.58
2023-01-21T09:05:17.849Z,18.60
2023-01-21T09:07:42.432Z,19.90
2023-01-21T09:10:09.762Z,16.48
2023-01-21T09:12:34.416Z,19.40
2023-01-21T09:14:58.950Z,18.75
2023-01-21T09:17:24.839Z,18.92
2023-01-21T09:19:49.458Z,18.70
2023-01-21T09:22:13.934Z,18.88
2023-01-21T09:24:38.795Z,17.40
2023-01-21T09:27:03.146Z,17.27
2023-01-21T09:29:27.640Z,18.40
2023-01-21T09:31:52.221Z,17.98
2023-01-21T09:34:18.395Z,19.50
2023-01-21T09:36:42.813Z,22.25
2023-01-21T09:39:08.152Z,20.15
2023-01-21T09:41:36.892Z,20.98
2023-01-21T09:44:08.672Z,20.10
2023-01-21T09:46:39.791Z,19.95
2023-01-21T09:49:07.871Z,18.98
2023-01-21T09:51:43.864Z,18.58
2023-01-21T09:54:16.584Z,19.27
2023-01-21T09:56:51.509Z,18.70
2023-01-21T09:59:25.374Z,18.30
2023-01-21T10:01:51.108Z,18.58
2023-01-21T10:04:34.376Z,17.80
2023-01-21T10:07:07.641Z,17.75
2023-01-21T10:09:47.703Z,18.85
2023-01-21T10:12:31.478Z,18.20
2023-01-21T10:15:37.559Z,18.00
2023-01-21T10:18:04.914Z,17.23
2023-01-21T10:20:32.292Z,17.98
2023-01-21T10:23:03.837Z,17.15
2023-01-21T10:25:33.022Z,17.30
2023-01-21T10:28:00.082Z,17.42
2023-01-21T10:30:28.989Z,18.15
2023-01-21T10:32:56.509Z,18.67
2023-01-21T10:35:32.517Z,20.55
2023-01-21T10:38:06.182Z,21.63
2023-01-21T10:40:45.778Z,20.33
2023-01-21T10:43:20.849Z,22.08
2023-01-21T10:45:56.210Z,23.42
2023-01-21T10:48:32.695Z,22.30
2023-01-21T10:51:02.416Z,22.45
2023-01-21T10:53:34.796Z,23.67
2023-01-21T10:56:15.248Z,23.67
2023-01-21T10:58:44.334Z,27.83
2023-01-21T11:01:16.567Z,28.90
2023-01-21T11:03:43.652Z,23.17
2023-01-21T11:06:10.880Z,22.88
2023-01-21T11:08:38.330Z,22.98
2023-01-21T11:11:04.244Z,20.52
2023-01-21T11:13:28.867Z,31.88
2023-01-21T11:15:55.083Z,17.75
2023-01-21T11:18:32.308Z,25.63
2023-01-21T11:21:00.353Z,20.05
2023-01-21T11:23:28.386Z,19.27
2023-01-21T11:26:03.043Z,17.58
2023-01-21T11:28:31.517Z,16.95
2023-01-21T11:31:08.288Z,19.45
2023-01-21T11:33:33.038Z,17.10
2023-01-21T11:35:58.719Z,16.02
2023-01-21T11:38:27.142Z,17.40
2023-01-21T11:41:10.763Z,17.23
2023-01-21T11:43:37.484Z,15.20
2023-01-21T11:46:01.882Z,15.70
2023-01-21T11:48:26.368Z,15.77
2023-01-21T11:50:50.816Z,13.23
2023-01-21T11:53:17.547Z,12.93
2023-01-21T11:55:44.225Z,16.10
2023-01-21T11:58:19.231Z,13.52
2023-01-21T12:00:47.039Z,15.35
2023-01-21T12:03:17.607Z,15.52
2023-01-21T12:05:44.174Z,13.50
2023-01-21T12:08:09.159Z,15.00
2023-01-21T12:10:36.942Z,15.35
2023-01-21T12:13:34.710Z,14.73
2023-01-21T12:16:23.133Z,13.82
2023-01-21T12:19:16.781Z,12.20
2023-01-21T12:21:55.869Z,14.15
2023-01-21T12:24:32.095Z,14.52
2023-01-21T12:27:03.599Z,13.13
2023-01-21T12:29:44.597Z,13.88
2023-01-21T12:32:16.496Z,13.27
2023-01-21T12:34:47.296Z,13.00
2023-01-21T12:37:20.759Z,11.68
2023-01-21T12:39:49.025Z,14.60
2023-01-21T12:42:18.514Z,14.38
2023-01-21T12:44:50.293Z,14.88
2023-01-21T12:47:26.169Z,16.23
2023-01-21T12:50:11.745Z,15.23
2023-01-21T12:52:42.481Z,14.70
2023-01-21T12:55:15.301Z,17.40
2023-01-21T12:57:45.510Z,14.77
2023-01-21T13:00:21.621Z,15.70
2023-01-21T13:02:56.544Z,17.23
2023-01-21T13:05:30.447Z,16.38
2023-01-21T13:08:00.645Z,17.33
2023-01-21T13:10:29.193Z,15.07
2023-01-21T13:12:59.796Z,14.65
2023-01-21T13:15:31.820Z,14.63
2023-01-21T13:18:00.537Z,13.95
2023-01-21T13:20:27.215Z,14.82
2023-01-21T13:23:02.425Z,14.23
2023-01-21T13:25:34.988Z,15.13
2023-01-21T13:28:06.853Z,13.02
2023-01-21T13:30:37.927Z,13.27
2023-01-21T13:33:14.082Z,13.40
2023-01-21T13:35:45.636Z,13.02
2023-01-21T13:38:21.198Z,12.38
2023-01-21T13:40:54.221Z,10.82
2023-01-21T13:43:51.708Z,12.55
2023-01-21T13:46:35.329Z,12.35
2023-01-21T13:49:22.903Z,11.35
2023-01-21T13:51:56.721Z,10.80
2023-01-21T13:54:45.189Z,11.85
2023-01-21T13:57:23.948Z,12.60
2023-01-21T13:59:55.243Z,11.75
2023-01-21T14:02:24.686Z,12.60
2023-01-21T14:04:55.565Z,13.98
2023-01-21T14:07:27.312Z,12.93
2023-01-21T14:09:57.350Z,12.50
2023-01-21T14:12:31.638Z,11.00
2023-01-21T14:15:29.579Z,11.20
2023-01-21T14:18:17.656Z,11.15
2023-01-21T14:21:05.362Z,10.80
2023-01-21T14:23:55.091Z,10.38
2023-01-21T14:26:36.103Z,11.23
2023-01-21T14:29:11.380Z,11.20
2023-01-21T14:31:40.140Z,11.40
2023-01-21T14:34:14.532Z,10.55
2023-01-21T14:36:45.383Z,11.27
2023-01-21T14:39:24.807Z,13.57
2023-01-21T14:42:01.536Z,13.15
2023-01-21T14:44:43.853Z,12.63
2023-01-21T14:47:24.055Z,11.32
2023-01-21T14:49:52.155Z,12.07
2023-01-21T14:52:19.533Z,11.48
2023-01-21T14:54:46.001Z,11.38
2023-01-21T14:57:24.180Z,13.45
2023-01-21T14:59:50.551Z,12.05
2023-01-21T15:02:30.074Z,13.38
2023-01-21T15:04:57.737Z,11.77
2023-01-21T15:07:24.509Z,11.02
2023-01-21T15:09:53.888Z,12.00
2023-01-21T15:12:23.622Z,14.23
2023-01-21T15:14:48.693Z,13.93
2023-01-21T15:17:47.381Z,23.63
2023-01-21T15:20:49.918Z,20.48
2023-01-21T15:23:21.812Z,26.02
2023-01-21T15:26:05.178Z,18.52
2023-01-21T15:28:42.116Z,15.10
2023-01-21T15:31:30.156Z,13.85
2023-01-21T15:33:59.371Z,13.85
2023-01-21T15:36:26.525Z,15.60
2023-01-21T15:38:53.495Z,15.65
2023-01-21T15:41:34.480Z,16.80
2023-01-21T15:44:08.709Z,17.50
2023-01-21T15:46:42.784Z,18.63
2023-01-21T15:49:27.142Z,19.00
2023-01-21T15:52:01.862Z,21.65
2023-01-21T15:54:33.903Z,22.23
2023-01-21T15:57:11.414Z,22.60
2023-01-21T15:59:54.973Z,22.92
2023-01-21T16:02:25.414Z,21.25
2023-01-21T16:05:09.149Z,22.48
2023-01-21T16:07:44.872Z,22.23
2023-01-21T16:10:18.731Z,22.40
2023-01-21T16:12:54.903Z,22.60
2023-01-21T16:15:33.404Z,21.92
2023-01-21T16:18:13.463Z,22.35
2023-01-21T16:20:44.931Z,21.65
2023-01-21T16:23:09.906Z,21.05
2023-01-21T16:25:35.443Z,20.13
2023-01-21T16:28:00.105Z,19.88
2023-01-21T16:30:28.534Z,19.38
2023-01-21T16:33:08.872Z,19.50
2023-01-21T16:35:45.733Z,17.73
2023-01-21T16:38:15.664Z,18.63
2023-01-21T16:40:40.096Z,19.35
2023-01-21T16:43:17.485Z,19.63
2023-01-21T16:45:51.531Z,18.63
2023-01-21T16:48:22.351Z,20.73
2023-01-21T16:50:50.425Z,19.17
2023-01-21T16:53:17.360Z,19.35
2023-01-21T16:55:46.240Z,19.88
2023-01-21T16:58:22.399Z,20.63
2023-01-21T17:01:01.451Z,20.95
2023-01-21T17:03:26.511Z,23.42
2023-01-21T17:05:55.118Z,22.05
2023-01-21T17:08:20.439Z,24.90
2023-01-21T17:10:59.014Z,25.65
2023-01-21T17:13:24.545Z,25.00
2023-01-21T17:15:57.497Z,24.42
2023-01-21T17:18:25.912Z,25.42
2023-01-21T17:20:55.813Z,23.02
2023-01-21T17:23:24.252Z,25.15
2023-01-21T17:25:55.287Z,22.70
2023-01-21T17:28:28.523Z,22.55
2023-01-21T17:31:09.975Z,22.60
2023-01-21T17:33:34.810Z,18.50
2023-01-21T17:36:13.980Z,22.98
2023-01-21T17:38:42.919Z,22.00
2023-01-21T17:41:09.720Z,20.58
2023-01-21T17:43:36.259Z,21.45
2023-01-21T17:46:01.003Z,23.30
2023-01-21T17:48:30.011Z,23.35
2023-01-21T17:50:55.377Z,22.00
2023-01-21T17:53:25.940Z,23.55
2023-01-21T17:56:02.125Z,22.20
2023-01-21T17:58:50.168Z,21.10
2023-01-21T18:01:15.875Z,21.05
2023-01-21T18:03:43.327Z,22.40
2023-01-21T18:06:18.066Z,20.80
2023-01-21T18:08:43.995Z,20.80
2023-01-21T18:11:08.410Z,22.50
2023-01-21T18:13:32.883Z,20.70
2023-01-21T18:15:57.283Z,21.25
2023-01-21T18:18:25.384Z,22.40
2023-01-21T18:20:49.798Z,22.00
2023-01-21T18:23:15.300Z,22.40
2023-01-21T18:25:42.265Z,21.13
2023-01-21T18:28:15.696Z,22.08
2023-01-21T18:30:40.241Z,23.10
2023-01-21T18:33:04.848Z,21.17
2023-01-21T18:35:30.992Z,21.98
2023-01-21T18:37:55.573Z,22.88
2023-01-21T18:40:22.514Z,24.23
2023-01-21T18:42:50.796Z,20.20
2023-01-21T18:45:17.720Z,21.23
2023-01-21T18:47:42.401Z,19.85
2023-01-21T18:50:07.815Z,20.02
2023-01-21T18:52:32.340Z,19.65
2023-01-21T18:54:58.316Z,20.23
2023-01-21T18:57:24.390Z,20.10
2023-01-21T18:59:50.231Z,19.33
2023-01-21T19:02:17.322Z,19.33
2023-01-21T19:04:42.172Z,19.33
2023-01-21T19:07:14.846Z,20.35
2023-01-21T19:09:40.977Z,19.70
2023-01-21T19:12:06.043Z,19.00
2023-01-21T19:14:31.034Z,19.17
2023-01-21T19:16:57.127Z,20.15
2023-01-21T19:19:22.534Z,18.67
2023-01-21T19:21:47.054Z,18.15
2023-01-21T19:24:12.473Z,16.45
2023-01-21T19:26:39.217Z,16.13
2023-01-21T19:29:05.323Z,17.38
2023-01-21T19:31:30.246Z,14.95
2023-01-21T19:33:56.361Z,15.38
2023-01-21T19:36:22.467Z,15.80
2023-01-21T19:38:51.800Z,14.80
2023-01-21T19:41:16.633Z,14.13
2023-01-21T19:43:42.264Z,12.10
2023-01-21T19:46:12.000Z,14.27
2023-01-21T19:48:36.685Z,13.43
2023-01-21T19:51:02.727Z,10.77
2023-01-21T19:53:27.442Z,12.48
2023-01-21T19:55:51.942Z,11.52
2023-01-21T19:58:19.791Z,10.73
2023-01-21T20:00:44.500Z,10.60
2023-01-21T20:03:13.036Z,11.82
2023-01-21T20:05:37.701Z,9.00
2023-01-21T20:08:04.362Z,8.65
2023-01-21T20:10:31.312Z,8.35
2023-01-21T20:12:57.637Z,7.40
2023-01-21T20:15:25.409Z,7.03
2023-01-21T20:17:53.828Z,7.18
2023-01-21T20:20:20.516Z,7.05
2023-01-21T20:22:45.084Z,5.72
2023-01-21T20:25:16.508Z,6.25
2023-01-21T20:27:42.070Z,6.65
2023-01-21T20:30:26.957Z,5.45
2023-01-21T20:32:52.246Z,5.95
2023-01-21T20:35:19.040Z,6.72
2023-01-21T20:37:45.559Z,5.70
2023-01-21T20:40:20.224Z,5.70
2023-01-21T20:42:44.867Z,6.40
2023-01-21T20:45:11.805Z,5.70
2023-01-21T20:47:38.547Z,5.15
2023-01-21T20:50:03.273Z,5.38
2023-01-21T20:52:27.835Z,5.03
2023-01-21T20:54:52.214Z,5.22
2023-01-21T20:57:18.819Z,5.28
2023-01-21T20:59:43.221Z,5.28
2023-01-21T21:02:12.431Z,5.05
2023-01-21T21:04:37.429Z,5.70
2023-01-21T21:07:01.978Z,6.40
2023-01-21T21:09:26.502Z,5.40
2023-01-21T21:11:50.873Z,5.45
2023-01-21T21:14:17.935Z,5.72
2023-01-21T21:16:42.505Z,5.80
2023-01-21T21:19:07.135Z,6.07
2023-01-21T21:21:31.958Z,5.18
2023-01-21T21:23:56.647Z,5.22
2023-01-21T21:26:23.270Z,5.47
2023-01-21T21:28:48.339Z,5.07
2023-01-21T21:31:15.970Z,6.10
2023-01-21T21:33:40.923Z,5.57
2023-01-21T21:36:05.755Z,6.85
2023-01-21T21:38:30.424Z,4.65
2023-01-21T21:40:54.812Z,5.72
2023-01-21T21:43:32.983Z,5.80
2023-01-21T21:46:15.550Z,5.28
2023-01-21T21:48:42.551Z,5.63
2023-01-21T21:51:07.600Z,5.18
2023-01-21T21:53:32.331Z,5.97
2023-01-21T21:55:56.844Z,6.18
2023-01-21T21:58:21.346Z,6.32
2023-01-21T22:00:46.127Z,6.95
2023-01-21T22:03:12.839Z,6.68
2023-01-21T22:05:39.035Z,5.80
2023-01-21T22:08:04.368Z,6.28
2023-01-21T22:10:28.970Z,5.90
2023-01-21T22:12:53.818Z,5.82
2023-01-21T22:15:19.357Z,5.82
2023-01-21T22:17:44.307Z,6.38
2023-01-21T22:20:09.590Z,6.30
2023-01-21T22:22:35.775Z,5.70
2023-01-21T22:25:00.189Z,6.28
2023-01-21T22:27:24.857Z,6.32
2023-01-21T22:29:49.800Z,5.20
2023-01-21T22:32:16.317Z,5.72
2023-01-21T22:34:41.361Z,6.63
2023-01-21T22:37:05.880Z,7.03
2023-01-21T22:39:33.583Z,6.38
2023-01-21T22:42:00.328Z,7.78
2023-01-21T22:44:24.787Z,5.95
2023-01-21T22:46:49.288Z,6.85
2023-01-21T22:49:13.973Z,6.85
2023-01-21T22:51:38.517Z,6.45
2023-01-21T22:54:03.292Z,7.90
2023-01-21T22:56:49.700Z,6.53
2023-01-21T22:59:14.609Z,6.85
2023-01-21T23:01:39.497Z,6.15
2023-01-21T23:04:04.073Z,6.70
2023-01-21T23:06:29.342Z,6.18
2023-01-21T23:08:54.435Z,6.82
2023-01-21T23:11:21.115Z,7.03
2023-01-21T23:13:49.619Z,6.78
2023-01-21T23:16:17.500Z,6.63
2023-01-21T23:18:42.265Z,6.70
2023-01-21T23:21:08.455Z,5.68
2023-01-21T23:23:37.361Z,6.57
2023-01-21T23:26:03.129Z,6.70
2023-01-21T23:28:27.621Z,6.47
2023-01-21T23:30:53.519Z,5.72
2023-01-21T23:33:18.763Z,6.78
2023-01-21T23:35:43.560Z,5.68
2023-01-21T23:38:08.082Z,6.72
2023-01-21T23:40:33.552Z,6.35
2023-01-21T23:42:58.003Z,5.18
2023-01-21T23:45:22.709Z,5.22
2023-01-21T23:47:50.377Z,5.45
2023-01-21T23:50:15.481Z,5.80
2023-01-21T23:52:42.350Z,6.30
2023-01-21T23:55:08.964Z,5.75
2023-01-21T23:57:33.423Z,5.43
2023-01-21T23:59:57.926Z,5.68
